sensor_id;sensor_type;location;lat;lon;timestamp;temperature;humidity
72206;DHT22;60111;48.286;7.812;2022-09-09T00:00:21;17.90;94.60
72206;DHT22;60111;48.286;7.812;2022-09-09T00:05:55;17.80;94.90
72206;DHT22;60111;48.286;7.812;2022-09-09T00:08:30;17.80;94.80
72206;DHT22;60111;48.286;7.812;2022-09-09T00:11:02;17.80;94.90
72206;DHT22;60111;48.286;7.812;2022-09-09T00:13:46;17.80;95.00
72206;DHT22;60111;48.286;7.812;2022-09-09T00:16:28;17.80;95.10
72206;DHT22;60111;48.286;7.812;2022-09-09T00:19:19;17.80;95.20
72206;DHT22;60111;48.286;7.812;2022-09-09T00:22:17;17.80;95.40
72206;DHT22;60111;48.286;7.812;2022-09-09T00:24:55;17.90;95.00
72206;DHT22;60111;48.286;7.812;2022-09-09T00:27:46;18.00;94.10
72206;DHT22;60111;48.286;7.812;2022-09-09T00:30:24;18.00;93.10
72206;DHT22;60111;48.286;7.812;2022-09-09T00:33:03;18.10;93.00
72206;DHT22;60111;48.286;7.812;2022-09-09T00:35:48;18.20;92.80
72206;DHT22;60111;48.286;7.812;2022-09-09T00:38:37;18.30;93.10
72206;DHT22;60111;48.286;7.812;2022-09-09T00:41:38;18.20;93.40
72206;DHT22;60111;48.286;7.812;2022-09-09T00:47:12;18.30;93.00
72206;DHT22;60111;48.286;7.812;2022-09-09T00:52:40;18.10;93.40
72206;DHT22;60111;48.286;7.812;2022-09-09T00:55:25;18.10;93.40
72206;DHT22;60111;48.286;7.812;2022-09-09T00:57:57;18.20;92.80
72206;DHT22;60111;48.286;7.812;2022-09-09T01:01:18;18.10;92.80
72206;DHT22;60111;48.286;7.812;2022-09-09T01:11:25;18.20;92.60
72206;DHT22;60111;48.286;7.812;2022-09-09T01:16:53;18.00;92.90
72206;DHT22;60111;48.286;7.812;2022-09-09T01:27:25;17.80;94.10
72206;DHT22;60111;48.286;7.812;2022-09-09T01:29:58;17.80;93.90
72206;DHT22;60111;48.286;7.812;2022-09-09T01:32:42;17.70;94.00
72206;DHT22;60111;48.286;7.812;2022-09-09T01:38:07;17.60;94.30
72206;DHT22;60111;48.286;7.812;2022-09-09T01:40:40;17.60;94.40
72206;DHT22;60111;48.286;7.812;2022-09-09T01:43:13;17.60;94.20
72206;DHT22;60111;48.286;7.812;2022-09-09T01:45:48;17.70;94.10
72206;DHT22;60111;48.286;7.812;2022-09-09T01:48:23;17.70;93.90
72206;DHT22;60111;48.286;7.812;2022-09-09T01:50:56;17.70;93.80
72206;DHT22;60111;48.286;7.812;2022-09-09T01:53:29;17.80;93.80
72206;DHT22;60111;48.286;7.812;2022-09-09T01:56:18;17.80;93.70
72206;DHT22;60111;48.286;7.812;2022-09-09T02:07:50;17.90;93.20
72206;DHT22;60111;48.286;7.812;2022-09-09T02:10:17;17.80;93.20
72206;DHT22;60111;48.286;7.812;2022-09-09T02:12:53;17.80;93.40
72206;DHT22;60111;48.286;7.812;2022-09-09T02:15:31;17.70;93.40
72206;DHT22;60111;48.286;7.812;2022-09-09T02:18:01;17.60;93.60
72206;DHT22;60111;48.286;7.812;2022-09-09T02:20:37;17.60;93.90
72206;DHT22;60111;48.286;7.812;2022-09-09T02:23:11;17.60;94.30
72206;DHT22;60111;48.286;7.812;2022-09-09T02:25:45;17.60;94.10
72206;DHT22;60111;48.286;7.812;2022-09-09T02:28:20;17.50;94.50
72206;DHT22;60111;48.286;7.812;2022-09-09T02:30:55;17.40;94.90
72206;DHT22;60111;48.286;7.812;2022-09-09T02:33:32;17.30;95.10
72206;DHT22;60111;48.286;7.812;2022-09-09T02:36:05;17.30;95.00
72206;DHT22;60111;48.286;7.812;2022-09-09T02:38:42;17.30;95.00
72206;DHT22;60111;48.286;7.812;2022-09-09T02:41:15;17.30;95.30
72206;DHT22;60111;48.286;7.812;2022-09-09T02:43:48;17.20;95.40
72206;DHT22;60111;48.286;7.812;2022-09-09T02:46:41;17.30;95.50
72206;DHT22;60111;48.286;7.812;2022-09-09T02:49:19;17.40;95.40
72206;DHT22;60111;48.286;7.812;2022-09-09T02:52:11;17.20;95.90
72206;DHT22;60111;48.286;7.812;2022-09-09T02:54:40;17.20;96.20
72206;DHT22;60111;48.286;7.812;2022-09-09T02:57:16;17.20;95.90
72206;DHT22;60111;48.286;7.812;2022-09-09T02:59:49;17.20;95.90
72206;DHT22;60111;48.286;7.812;2022-09-09T03:02:23;17.20;95.90
72206;DHT22;60111;48.286;7.812;2022-09-09T03:04:56;17.20;96.30
72206;DHT22;60111;48.286;7.812;2022-09-09T03:07:29;17.20;96.10
72206;DHT22;60111;48.286;7.812;2022-09-09T03:10:02;17.30;95.90
72206;DHT22;60111;48.286;7.812;2022-09-09T03:12:35;17.40;96.00
72206;DHT22;60111;48.286;7.812;2022-09-09T03:15:08;17.40;96.00
72206;DHT22;60111;48.286;7.812;2022-09-09T03:17:41;17.40;96.00
72206;DHT22;60111;48.286;7.812;2022-09-09T03:20:14;17.40;96.00
72206;DHT22;60111;48.286;7.812;2022-09-09T03:22:46;17.40;95.90
72206;DHT22;60111;48.286;7.812;2022-09-09T03:25:19;17.40;95.80
72206;DHT22;60111;48.286;7.812;2022-09-09T03:27:54;17.40;95.80
72206;DHT22;60111;48.286;7.812;2022-09-09T03:30:27;17.40;95.90
72206;DHT22;60111;48.286;7.812;2022-09-09T03:33:00;17.40;95.80
72206;DHT22;60111;48.286;7.812;2022-09-09T03:35:33;17.40;95.80
72206;DHT22;60111;48.286;7.812;2022-09-09T03:38:06;17.30;95.90
72206;DHT22;60111;48.286;7.812;2022-09-09T03:40:39;17.30;95.80
72206;DHT22;60111;48.286;7.812;2022-09-09T03:43:12;17.30;96.00
72206;DHT22;60111;48.286;7.812;2022-09-09T03:45:47;17.30;96.10
72206;DHT22;60111;48.286;7.812;2022-09-09T03:48:20;17.30;96.10
72206;DHT22;60111;48.286;7.812;2022-09-09T03:50:54;17.30;96.00
72206;DHT22;60111;48.286;7.812;2022-09-09T03:53:29;17.20;96.20
72206;DHT22;60111;48.286;7.812;2022-09-09T03:56:02;17.20;96.30
72206;DHT22;60111;48.286;7.812;2022-09-09T03:58:37;17.30;96.20
72206;DHT22;60111;48.286;7.812;2022-09-09T04:01:12;17.20;96.30
72206;DHT22;60111;48.286;7.812;2022-09-09T04:03:46;17.20;96.40
72206;DHT22;60111;48.286;7.812;2022-09-09T04:06:19;17.10;96.50
72206;DHT22;60111;48.286;7.812;2022-09-09T04:08:52;17.00;96.80
72206;DHT22;60111;48.286;7.812;2022-09-09T04:11:25;17.00;96.70
72206;DHT22;60111;48.286;7.812;2022-09-09T04:13:57;17.00;96.60
72206;DHT22;60111;48.286;7.812;2022-09-09T04:16:30;17.00;96.70
72206;DHT22;60111;48.286;7.812;2022-09-09T04:19:03;16.90;96.70
72206;DHT22;60111;48.286;7.812;2022-09-09T04:21:38;17.00;96.70
72206;DHT22;60111;48.286;7.812;2022-09-09T04:24:11;16.90;97.30
72206;DHT22;60111;48.286;7.812;2022-09-09T04:26:44;16.90;96.90
72206;DHT22;60111;48.286;7.812;2022-09-09T04:29:17;16.90;97.00
72206;DHT22;60111;48.286;7.812;2022-09-09T04:31:49;16.70;97.50
72206;DHT22;60111;48.286;7.812;2022-09-09T04:34:22;16.70;97.30
72206;DHT22;60111;48.286;7.812;2022-09-09T04:36:55;16.70;97.60
72206;DHT22;60111;48.286;7.812;2022-09-09T04:39:28;16.70;97.60
72206;DHT22;60111;48.286;7.812;2022-09-09T04:42:01;16.70;97.70
72206;DHT22;60111;48.286;7.812;2022-09-09T04:44:34;16.60;97.90
72206;DHT22;60111;48.286;7.812;2022-09-09T04:47:07;16.60;97.90
72206;DHT22;60111;48.286;7.812;2022-09-09T04:49:41;16.60;98.00
72206;DHT22;60111;48.286;7.812;2022-09-09T04:52:13;16.60;98.10
72206;DHT22;60111;48.286;7.812;2022-09-09T04:54:48;16.60;98.00
72206;DHT22;60111;48.286;7.812;2022-09-09T04:57:20;16.70;98.00
72206;DHT22;60111;48.286;7.812;2022-09-09T04:59:53;16.70;98.00
72206;DHT22;60111;48.286;7.812;2022-09-09T05:02:26;16.70;97.80
72206;DHT22;60111;48.286;7.812;2022-09-09T05:04:58;16.80;97.90
72206;DHT22;60111;48.286;7.812;2022-09-09T05:07:32;16.80;97.80
72206;DHT22;60111;48.286;7.812;2022-09-09T05:10:05;16.90;97.70
72206;DHT22;60111;48.286;7.812;2022-09-09T05:12:38;17.00;97.60
72206;DHT22;60111;48.286;7.812;2022-09-09T05:15:10;17.00;97.70
72206;DHT22;60111;48.286;7.812;2022-09-09T05:17:43;17.10;97.70
72206;DHT22;60111;48.286;7.812;2022-09-09T05:20:15;17.20;97.10
72206;DHT22;60111;48.286;7.812;2022-09-09T05:22:48;17.20;97.40
72206;DHT22;60111;48.286;7.812;2022-09-09T05:25:23;17.20;97.50
72206;DHT22;60111;48.286;7.812;2022-09-09T05:27:58;17.20;97.30
72206;DHT22;60111;48.286;7.812;2022-09-09T05:30:32;17.20;97.70
72206;DHT22;60111;48.286;7.812;2022-09-09T05:33:06;17.20;97.80
72206;DHT22;60111;48.286;7.812;2022-09-09T05:35:40;17.10;97.90
72206;DHT22;60111;48.286;7.812;2022-09-09T05:38:13;17.20;97.90
72206;DHT22;60111;48.286;7.812;2022-09-09T05:40:49;17.20;97.70
72206;DHT22;60111;48.286;7.812;2022-09-09T05:43:22;17.30;97.70
72206;DHT22;60111;48.286;7.812;2022-09-09T05:46:03;17.30;97.50
72206;DHT22;60111;48.286;7.812;2022-09-09T05:48:41;17.30;97.60
72206;DHT22;60111;48.286;7.812;2022-09-09T05:51:20;17.40;97.40
72206;DHT22;60111;48.286;7.812;2022-09-09T05:53:53;17.50;97.30
72206;DHT22;60111;48.286;7.812;2022-09-09T05:56:32;17.50;97.50
72206;DHT22;60111;48.286;7.812;2022-09-09T05:59:05;17.40;97.40
72206;DHT22;60111;48.286;7.812;2022-09-09T06:01:38;17.50;97.40
72206;DHT22;60111;48.286;7.812;2022-09-09T06:04:12;17.60;97.30
72206;DHT22;60111;48.286;7.812;2022-09-09T06:06:45;17.60;97.30
72206;DHT22;60111;48.286;7.812;2022-09-09T06:09:18;17.60;97.30
72206;DHT22;60111;48.286;7.812;2022-09-09T06:11:50;17.60;97.40
72206;DHT22;60111;48.286;7.812;2022-09-09T06:14:23;17.60;97.50
72206;DHT22;60111;48.286;7.812;2022-09-09T06:16:56;17.60;97.50
72206;DHT22;60111;48.286;7.812;2022-09-09T06:19:29;17.80;97.30
72206;DHT22;60111;48.286;7.812;2022-09-09T06:22:03;17.80;97.20
72206;DHT22;60111;48.286;7.812;2022-09-09T06:24:36;17.80;97.30
72206;DHT22;60111;48.286;7.812;2022-09-09T06:27:09;17.90;97.00
72206;DHT22;60111;48.286;7.812;2022-09-09T06:29:42;17.80;97.30
72206;DHT22;60111;48.286;7.812;2022-09-09T06:32:14;17.80;97.30
72206;DHT22;60111;48.286;7.812;2022-09-09T06:34:47;17.90;97.40
72206;DHT22;60111;48.286;7.812;2022-09-09T06:37:20;18.00;97.00
72206;DHT22;60111;48.286;7.812;2022-09-09T06:39:55;17.90;97.50
72206;DHT22;60111;48.286;7.812;2022-09-09T06:42:27;17.90;97.70
72206;DHT22;60111;48.286;7.812;2022-09-09T06:45:00;18.10;97.30
72206;DHT22;60111;48.286;7.812;2022-09-09T06:47:32;18.20;97.30
72206;DHT22;60111;48.286;7.812;2022-09-09T06:50:05;18.20;97.20
72206;DHT22;60111;48.286;7.812;2022-09-09T06:52:38;18.30;97.20
72206;DHT22;60111;48.286;7.812;2022-09-09T06:55:11;18.30;96.90
72206;DHT22;60111;48.286;7.812;2022-09-09T06:57:44;18.50;96.80
72206;DHT22;60111;48.286;7.812;2022-09-09T07:00:17;18.40;96.90
72206;DHT22;60111;48.286;7.812;2022-09-09T07:02:51;18.50;96.70
72206;DHT22;60111;48.286;7.812;2022-09-09T07:05:24;18.60;96.60
72206;DHT22;60111;48.286;7.812;2022-09-09T07:07:57;18.70;95.70
72206;DHT22;60111;48.286;7.812;2022-09-09T07:10:30;18.70;96.10
72206;DHT22;60111;48.286;7.812;2022-09-09T07:13:02;18.70;96.00
72206;DHT22;60111;48.286;7.812;2022-09-09T07:15:36;18.70;95.90
72206;DHT22;60111;48.286;7.812;2022-09-09T07:18:10;18.70;96.10
72206;DHT22;60111;48.286;7.812;2022-09-09T07:20:43;18.70;96.10
72206;DHT22;60111;48.286;7.812;2022-09-09T07:23:17;18.70;96.30
72206;DHT22;60111;48.286;7.812;2022-09-09T07:25:50;18.70;96.60
72206;DHT22;60111;48.286;7.812;2022-09-09T07:28:25;18.70;96.10
72206;DHT22;60111;48.286;7.812;2022-09-09T07:31:00;18.80;95.70
72206;DHT22;60111;48.286;7.812;2022-09-09T07:33:37;18.90;95.20
72206;DHT22;60111;48.286;7.812;2022-09-09T07:36:18;19.00;95.40
72206;DHT22;60111;48.286;7.812;2022-09-09T07:38:55;19.00;95.20
72206;DHT22;60111;48.286;7.812;2022-09-09T07:41:31;19.20;95.00
72206;DHT22;60111;48.286;7.812;2022-09-09T07:44:07;19.20;94.70
72206;DHT22;60111;48.286;7.812;2022-09-09T07:46:39;19.30;94.90
72206;DHT22;60111;48.286;7.812;2022-09-09T07:49:13;19.30;94.90
72206;DHT22;60111;48.286;7.812;2022-09-09T07:51:47;19.40;95.70
72206;DHT22;60111;48.286;7.812;2022-09-09T07:54:21;19.60;94.90
72206;DHT22;60111;48.286;7.812;2022-09-09T07:56:55;19.70;94.60
72206;DHT22;60111;48.286;7.812;2022-09-09T07:59:27;19.80;94.70
72206;DHT22;60111;48.286;7.812;2022-09-09T08:02:01;20.00;94.10
72206;DHT22;60111;48.286;7.812;2022-09-09T08:04:34;20.10;93.80
72206;DHT22;60111;48.286;7.812;2022-09-09T08:07:07;20.20;93.40
72206;DHT22;60111;48.286;7.812;2022-09-09T08:09:39;20.30;93.60
72206;DHT22;60111;48.286;7.812;2022-09-09T08:12:12;20.50;93.10
72206;DHT22;60111;48.286;7.812;2022-09-09T08:14:45;20.50;93.00
72206;DHT22;60111;48.286;7.812;2022-09-09T08:17:19;20.60;93.00
72206;DHT22;60111;48.286;7.812;2022-09-09T08:19:51;20.80;92.00
72206;DHT22;60111;48.286;7.812;2022-09-09T08:22:25;21.00;90.80
72206;DHT22;60111;48.286;7.812;2022-09-09T08:24:58;21.10;90.70
72206;DHT22;60111;48.286;7.812;2022-09-09T08:27:32;21.10;91.20
72206;DHT22;60111;48.286;7.812;2022-09-09T08:30:05;21.20;90.50
72206;DHT22;60111;48.286;7.812;2022-09-09T08:32:38;21.30;90.40
72206;DHT22;60111;48.286;7.812;2022-09-09T08:35:11;21.50;90.80
72206;DHT22;60111;48.286;7.812;2022-09-09T08:37:44;21.60;90.40
72206;DHT22;60111;48.286;7.812;2022-09-09T08:40:22;21.60;89.20
72206;DHT22;60111;48.286;7.812;2022-09-09T08:42:56;21.60;88.10
72206;DHT22;60111;48.286;7.812;2022-09-09T08:45:33;21.60;88.30
72206;DHT22;60111;48.286;7.812;2022-09-09T08:50:46;21.40;88.30
72206;DHT22;60111;48.286;7.812;2022-09-09T08:53:28;21.30;88.50
72206;DHT22;60111;48.286;7.812;2022-09-09T08:56:08;21.30;88.70
72206;DHT22;60111;48.286;7.812;2022-09-09T08:58:49;21.50;89.10
72206;DHT22;60111;48.286;7.812;2022-09-09T09:02:13;21.70;88.10
72206;DHT22;60111;48.286;7.812;2022-09-09T09:06:59;21.50;87.70
72206;DHT22;60111;48.286;7.812;2022-09-09T09:12:22;21.30;85.60
72206;DHT22;60111;48.286;7.812;2022-09-09T09:14:55;21.10;86.80
72206;DHT22;60111;48.286;7.812;2022-09-09T09:17:30;20.90;90.50
72206;DHT22;60111;48.286;7.812;2022-09-09T09:20:10;20.70;92.00
72206;DHT22;60111;48.286;7.812;2022-09-09T09:22:51;20.40;92.90
72206;DHT22;60111;48.286;7.812;2022-09-09T09:25:34;19.70;92.90
72206;DHT22;60111;48.286;7.812;2022-09-09T09:28:17;18.90;94.00
72206;DHT22;60111;48.286;7.812;2022-09-09T09:33:54;17.40;98.20
72206;DHT22;60111;48.286;7.812;2022-09-09T09:36:33;17.10;99.20
72206;DHT22;60111;48.286;7.812;2022-09-09T09:39:01;16.90;99.90
72206;DHT22;60111;48.286;7.812;2022-09-09T09:41:40;16.80;99.90
72206;DHT22;60111;48.286;7.812;2022-09-09T09:44:28;16.80;99.90
72206;DHT22;60111;48.286;7.812;2022-09-09T09:47:11;16.70;99.90
72206;DHT22;60111;48.286;7.812;2022-09-09T09:49:53;16.60;99.90
72206;DHT22;60111;48.286;7.812;2022-09-09T09:52:29;16.60;99.90
72206;DHT22;60111;48.286;7.812;2022-09-09T09:55:04;16.70;99.90
72206;DHT22;60111;48.286;7.812;2022-09-09T09:57:38;16.80;99.90
72206;DHT22;60111;48.286;7.812;2022-09-09T10:00:16;16.90;99.90
72206;DHT22;60111;48.286;7.812;2022-09-09T10:02:51;17.00;99.90
72206;DHT22;60111;48.286;7.812;2022-09-09T10:05:26;17.20;99.90
72206;DHT22;60111;48.286;7.812;2022-09-09T10:19:29;18.30;99.30
72206;DHT22;60111;48.286;7.812;2022-09-09T10:22:27;18.50;99.60
72206;DHT22;60111;48.286;7.812;2022-09-09T10:30:46;19.20;97.90
72206;DHT22;60111;48.286;7.812;2022-09-09T10:33:41;19.40;98.60
72206;DHT22;60111;48.286;7.812;2022-09-09T10:38:52;19.90;96.70
72206;DHT22;60111;48.286;7.812;2022-09-09T10:42:03;20.20;95.70
72206;DHT22;60111;48.286;7.812;2022-09-09T10:50:56;20.50;93.80
72206;DHT22;60111;48.286;7.812;2022-09-09T10:53:35;20.70;93.90
72206;DHT22;60111;48.286;7.812;2022-09-09T10:56:11;20.90;93.10
72206;DHT22;60111;48.286;7.812;2022-09-09T10:58:49;21.00;90.50
72206;DHT22;60111;48.286;7.812;2022-09-09T11:04:28;21.30;92.10
72206;DHT22;60111;48.286;7.812;2022-09-09T11:06:50;21.50;91.00
72206;DHT22;60111;48.286;7.812;2022-09-09T11:09:26;21.50;90.90
72206;DHT22;60111;48.286;7.812;2022-09-09T11:12:01;21.40;91.20
72206;DHT22;60111;48.286;7.812;2022-09-09T11:14:42;21.60;92.10
72206;DHT22;60111;48.286;7.812;2022-09-09T11:17:24;21.80;90.80
72206;DHT22;60111;48.286;7.812;2022-09-09T11:19:57;21.70;90.30
72206;DHT22;60111;48.286;7.812;2022-09-09T11:22:53;21.50;90.40
72206;DHT22;60111;48.286;7.812;2022-09-09T11:25:34;21.40;91.50
72206;DHT22;60111;48.286;7.812;2022-09-09T11:42:31;21.60;90.00
72206;DHT22;60111;48.286;7.812;2022-09-09T11:45:19;21.70;90.60
72206;DHT22;60111;48.286;7.812;2022-09-09T11:48:02;21.80;84.80
72206;DHT22;60111;48.286;7.812;2022-09-09T11:50:35;21.60;84.30
72206;DHT22;60111;48.286;7.812;2022-09-09T11:53:18;21.70;84.70
72206;DHT22;60111;48.286;7.812;2022-09-09T11:56:09;22.00;83.70
72206;DHT22;60111;48.286;7.812;2022-09-09T11:59:00;22.10;83.80
72206;DHT22;60111;48.286;7.812;2022-09-09T12:01:36;22.30;80.10
72206;DHT22;60111;48.286;7.812;2022-09-09T12:06:59;22.30;79.60
72206;DHT22;60111;48.286;7.812;2022-09-09T12:09:51;22.20;79.70
72206;DHT22;60111;48.286;7.812;2022-09-09T12:12:38;22.00;78.60
72206;DHT22;60111;48.286;7.812;2022-09-09T12:17:46;21.80;79.50
72206;DHT22;60111;48.286;7.812;2022-09-09T12:26:00;21.40;78.80
72206;DHT22;60111;48.286;7.812;2022-09-09T12:28:52;21.30;80.00
72206;DHT22;60111;48.286;7.812;2022-09-09T12:31:34;21.30;76.70
72206;DHT22;60111;48.286;7.812;2022-09-09T12:36:50;21.80;79.20
72206;DHT22;60111;48.286;7.812;2022-09-09T12:39:29;22.20;77.50
72206;DHT22;60111;48.286;7.812;2022-09-09T12:42:01;22.30;73.40
72206;DHT22;60111;48.286;7.812;2022-09-09T12:44:35;22.40;74.10
72206;DHT22;60111;48.286;7.812;2022-09-09T12:47:09;22.50;74.20
72206;DHT22;60111;48.286;7.812;2022-09-09T12:49:44;22.50;75.50
72206;DHT22;60111;48.286;7.812;2022-09-09T12:54:56;22.30;76.30
72206;DHT22;60111;48.286;7.812;2022-09-09T12:57:37;22.30;75.10
72206;DHT22;60111;48.286;7.812;2022-09-09T13:00:17;22.20;77.50
72206;DHT22;60111;48.286;7.812;2022-09-09T13:02:56;22.20;76.40
72206;DHT22;60111;48.286;7.812;2022-09-09T13:05:37;22.20;75.40
72206;DHT22;60111;48.286;7.812;2022-09-09T13:08:11;22.40;74.20
72206;DHT22;60111;48.286;7.812;2022-09-09T13:10:50;22.50;71.40
72206;DHT22;60111;48.286;7.812;2022-09-09T13:13:27;22.50;71.90
72206;DHT22;60111;48.286;7.812;2022-09-09T13:16:02;22.50;73.10
72206;DHT22;60111;48.286;7.812;2022-09-09T13:18:39;22.70;71.00
72206;DHT22;60111;48.286;7.812;2022-09-09T13:21:13;22.90;71.30
72206;DHT22;60111;48.286;7.812;2022-09-09T13:23:50;23.10;70.70
72206;DHT22;60111;48.286;7.812;2022-09-09T13:26:26;23.00;70.80
72206;DHT22;60111;48.286;7.812;2022-09-09T13:29:18;23.10;70.10
72206;DHT22;60111;48.286;7.812;2022-09-09T13:31:51;23.00;71.00
72206;DHT22;60111;48.286;7.812;2022-09-09T13:34:29;22.90;71.20
72206;DHT22;60111;48.286;7.812;2022-09-09T13:37:22;22.80;69.40
72206;DHT22;60111;48.286;7.812;2022-09-09T13:39:50;22.50;71.30
72206;DHT22;60111;48.286;7.812;2022-09-09T13:42:29;22.40;72.70
72206;DHT22;60111;48.286;7.812;2022-09-09T13:45:03;22.40;73.10
72206;DHT22;60111;48.286;7.812;2022-09-09T13:47:37;22.60;72.70
72206;DHT22;60111;48.286;7.812;2022-09-09T13:50:28;22.70;72.60
72206;DHT22;60111;48.286;7.812;2022-09-09T13:53:01;22.70;74.40
72206;DHT22;60111;48.286;7.812;2022-09-09T13:55:36;22.80;72.70
72206;DHT22;60111;48.286;7.812;2022-09-09T13:58:15;22.90;74.30
72206;DHT22;60111;48.286;7.812;2022-09-09T14:00:49;23.00;74.40
72206;DHT22;60111;48.286;7.812;2022-09-09T14:03:22;23.00;71.50
72206;DHT22;60111;48.286;7.812;2022-09-09T14:05:55;23.10;71.90
72206;DHT22;60111;48.286;7.812;2022-09-09T14:08:28;23.10;69.40
72206;DHT22;60111;48.286;7.812;2022-09-09T14:11:03;23.10;66.80
72206;DHT22;60111;48.286;7.812;2022-09-09T14:13:36;22.90;66.70
72206;DHT22;60111;48.286;7.812;2022-09-09T14:16:09;22.60;67.60
72206;DHT22;60111;48.286;7.812;2022-09-09T14:18:41;22.40;67.00
72206;DHT22;60111;48.286;7.812;2022-09-09T14:21:15;22.20;69.50
72206;DHT22;60111;48.286;7.812;2022-09-09T14:23:48;22.00;68.30
72206;DHT22;60111;48.286;7.812;2022-09-09T14:26:21;22.10;69.80
72206;DHT22;60111;48.286;7.812;2022-09-09T14:28:55;22.00;69.60
72206;DHT22;60111;48.286;7.812;2022-09-09T14:31:28;22.10;70.00
72206;DHT22;60111;48.286;7.812;2022-09-09T14:34:01;22.30;68.70
72206;DHT22;60111;48.286;7.812;2022-09-09T14:36:33;22.30;70.70
72206;DHT22;60111;48.286;7.812;2022-09-09T14:39:06;22.20;71.50
72206;DHT22;60111;48.286;7.812;2022-09-09T14:41:39;22.10;69.70
72206;DHT22;60111;48.286;7.812;2022-09-09T14:44:11;22.00;71.20
72206;DHT22;60111;48.286;7.812;2022-09-09T14:46:44;22.00;72.40
72206;DHT22;60111;48.286;7.812;2022-09-09T14:49:16;21.90;73.00
72206;DHT22;60111;48.286;7.812;2022-09-09T14:51:49;21.90;74.00
72206;DHT22;60111;48.286;7.812;2022-09-09T14:54:22;21.90;74.50
72206;DHT22;60111;48.286;7.812;2022-09-09T14:56:55;22.10;74.90
72206;DHT22;60111;48.286;7.812;2022-09-09T14:59:28;22.10;73.90
72206;DHT22;60111;48.286;7.812;2022-09-09T15:02:00;22.10;71.80
72206;DHT22;60111;48.286;7.812;2022-09-09T15:04:35;22.00;71.10
72206;DHT22;60111;48.286;7.812;2022-09-09T15:07:08;21.80;73.00
72206;DHT22;60111;48.286;7.812;2022-09-09T15:09:42;21.70;72.40
72206;DHT22;60111;48.286;7.812;2022-09-09T15:12:15;21.60;73.60
72206;DHT22;60111;48.286;7.812;2022-09-09T15:14:49;21.60;73.40
72206;DHT22;60111;48.286;7.812;2022-09-09T15:17:22;21.60;73.10
72206;DHT22;60111;48.286;7.812;2022-09-09T15:19:55;21.60;73.00
72206;DHT22;60111;48.286;7.812;2022-09-09T15:22:28;21.60;72.50
72206;DHT22;60111;48.286;7.812;2022-09-09T15:25:01;21.50;73.30
72206;DHT22;60111;48.286;7.812;2022-09-09T15:27:33;21.40;74.60
72206;DHT22;60111;48.286;7.812;2022-09-09T15:30:07;21.40;74.70
72206;DHT22;60111;48.286;7.812;2022-09-09T15:32:42;21.40;75.20
72206;DHT22;60111;48.286;7.812;2022-09-09T15:35:15;21.40;76.30
72206;DHT22;60111;48.286;7.812;2022-09-09T15:37:47;21.40;76.30
72206;DHT22;60111;48.286;7.812;2022-09-09T15:40:20;21.40;76.00
72206;DHT22;60111;48.286;7.812;2022-09-09T15:42:52;21.40;76.60
72206;DHT22;60111;48.286;7.812;2022-09-09T15:45:25;21.40;76.20
72206;DHT22;60111;48.286;7.812;2022-09-09T15:48:03;21.40;76.40
72206;DHT22;60111;48.286;7.812;2022-09-09T15:50:32;21.50;76.90
72206;DHT22;60111;48.286;7.812;2022-09-09T15:53:05;21.50;76.80
72206;DHT22;60111;48.286;7.812;2022-09-09T15:55:38;21.40;77.40
72206;DHT22;60111;48.286;7.812;2022-09-09T15:58:10;21.30;77.80
72206;DHT22;60111;48.286;7.812;2022-09-09T16:00:43;21.30;77.90
72206;DHT22;60111;48.286;7.812;2022-09-09T16:03:20;21.20;76.20
72206;DHT22;60111;48.286;7.812;2022-09-09T16:05:52;21.20;76.60
72206;DHT22;60111;48.286;7.812;2022-09-09T16:08:31;21.20;76.30
72206;DHT22;60111;48.286;7.812;2022-09-09T16:11:07;21.10;77.10
72206;DHT22;60111;48.286;7.812;2022-09-09T16:13:48;21.10;77.60
72206;DHT22;60111;48.286;7.812;2022-09-09T16:16:19;21.10;77.30
72206;DHT22;60111;48.286;7.812;2022-09-09T16:19:00;21.10;77.00
72206;DHT22;60111;48.286;7.812;2022-09-09T16:21:31;21.00;78.90
72206;DHT22;60111;48.286;7.812;2022-09-09T16:24:07;20.90;79.00
72206;DHT22;60111;48.286;7.812;2022-09-09T16:26:41;21.00;78.70
72206;DHT22;60111;48.286;7.812;2022-09-09T16:29:17;21.00;79.10
72206;DHT22;60111;48.286;7.812;2022-09-09T16:31:50;21.00;79.00
72206;DHT22;60111;48.286;7.812;2022-09-09T16:34:23;20.90;78.30
72206;DHT22;60111;48.286;7.812;2022-09-09T16:36:56;20.80;79.30
72206;DHT22;60111;48.286;7.812;2022-09-09T16:39:29;20.70;80.50
72206;DHT22;60111;48.286;7.812;2022-09-09T16:42:02;20.70;81.90
72206;DHT22;60111;48.286;7.812;2022-09-09T16:44:36;20.60;80.70
72206;DHT22;60111;48.286;7.812;2022-09-09T16:47:08;20.50;81.30
72206;DHT22;60111;48.286;7.812;2022-09-09T16:49:41;20.40;82.70
72206;DHT22;60111;48.286;7.812;2022-09-09T16:52:14;20.30;82.20
72206;DHT22;60111;48.286;7.812;2022-09-09T16:54:46;20.30;82.10
72206;DHT22;60111;48.286;7.812;2022-09-09T16:57:19;20.30;82.60
72206;DHT22;60111;48.286;7.812;2022-09-09T16:59:52;20.20;82.30
72206;DHT22;60111;48.286;7.812;2022-09-09T17:02:25;20.20;82.10
72206;DHT22;60111;48.286;7.812;2022-09-09T17:04:58;20.10;82.70
72206;DHT22;60111;48.286;7.812;2022-09-09T17:07:31;20.10;82.30
72206;DHT22;60111;48.286;7.812;2022-09-09T17:10:04;20.00;82.00
72206;DHT22;60111;48.286;7.812;2022-09-09T17:12:38;20.00;82.40
72206;DHT22;60111;48.286;7.812;2022-09-09T17:15:11;20.00;82.30
72206;DHT22;60111;48.286;7.812;2022-09-09T17:17:44;20.00;82.60
72206;DHT22;60111;48.286;7.812;2022-09-09T17:20:19;19.90;83.70
72206;DHT22;60111;48.286;7.812;2022-09-09T17:22:52;19.90;83.70
72206;DHT22;60111;48.286;7.812;2022-09-09T17:25:24;19.80;83.60
72206;DHT22;60111;48.286;7.812;2022-09-09T17:27:57;19.80;84.00
72206;DHT22;60111;48.286;7.812;2022-09-09T17:30:37;19.80;84.50
72206;DHT22;60111;48.286;7.812;2022-09-09T17:33:09;19.70;85.20
72206;DHT22;60111;48.286;7.812;2022-09-09T17:35:44;19.70;85.20
72206;DHT22;60111;48.286;7.812;2022-09-09T17:38:16;19.70;85.20
72206;DHT22;60111;48.286;7.812;2022-09-09T17:40:49;19.70;85.30
72206;DHT22;60111;48.286;7.812;2022-09-09T17:43:22;19.70;85.70
72206;DHT22;60111;48.286;7.812;2022-09-09T17:45:55;19.60;86.10
72206;DHT22;60111;48.286;7.812;2022-09-09T17:48:29;19.60;86.00
72206;DHT22;60111;48.286;7.812;2022-09-09T17:51:07;19.60;86.30
72206;DHT22;60111;48.286;7.812;2022-09-09T17:53:42;19.60;86.30
72206;DHT22;60111;48.286;7.812;2022-09-09T17:56:18;19.60;86.60
72206;DHT22;60111;48.286;7.812;2022-09-09T17:58:54;19.60;86.60
72206;DHT22;60111;48.286;7.812;2022-09-09T18:01:29;19.50;86.70
72206;DHT22;60111;48.286;7.812;2022-09-09T18:04:05;19.40;87.40
72206;DHT22;60111;48.286;7.812;2022-09-09T18:06:41;19.40;87.80
72206;DHT22;60111;48.286;7.812;2022-09-09T18:09:24;19.40;87.60
72206;DHT22;60111;48.286;7.812;2022-09-09T18:11:55;19.30;88.20